Time;durP1;ratioP1;P1;durP2;ratioP2;P2;SDS_P1;SDS_P2;PMS_P1;PMS_P2;Temp;Humidity;BMP_temperature;BMP_pressure;BME280_temperature;BME280_humidity;BME280_pressure;Samples;Min_cycle;Max_cycle;Signal;HPM_P1;HPM_P2
2021/07/19 00:00:38;;;;;;;4.85;1.73;;;22.50;99.90;;;;;;3565894;40;20405;-64
2021/07/19 00:03:05;;;;;;;2.92;1.63;;;22.50;99.90;;;;;;3566202;40;20787;-65
2021/07/19 00:05:31;;;;;;;2.40;1.52;;;22.40;99.90;;;;;;3557022;40;20725;-64
2021/07/19 00:07:57;;;;;;;3.90;1.77;;;22.40;99.90;;;;;;3556844;40;20389;-64
2021/07/19 00:10:25;;;;;;;3.60;1.37;;;22.30;99.90;;;;;;3565864;40;20395;-64
2021/07/19 00:12:52;;;;;;;2.47;1.42;;;22.30;99.90;;;;;;3563291;40;20410;-64
2021/07/19 00:15:26;;;;;;;2.37;1.37;;;22.30;99.90;;;;;;3565524;40;20378;-64
2021/07/19 00:17:53;;;;;;;3.10;1.40;;;22.30;99.90;;;;;;3562594;40;20386;-64
2021/07/19 00:20:20;;;;;;;2.90;1.50;;;22.20;99.90;;;;;;3566163;40;20386;-64
2021/07/19 00:22:46;;;;;;;1.90;1.57;;;22.20;99.90;;;;;;3565190;40;20421;-64
2021/07/19 00:25:14;;;;;;;2.35;1.60;;;22.10;99.90;;;;;;3564841;40;20382;-64
2021/07/19 00:27:43;;;;;;;3.80;1.70;;;22.10;99.90;;;;;;3557573;40;20445;-64
2021/07/19 00:30:11;;;;;;;2.27;1.70;;;22.10;99.90;;;;;;3566062;40;20472;-64
2021/07/19 00:32:37;;;;;;;3.40;1.80;;;22.10;99.90;;;;;;3557880;40;20674;-63
2021/07/19 00:35:04;;;;;;;4.53;1.93;;;22.10;99.90;;;;;;3566320;40;20475;-64
2021/07/19 00:37:30;;;;;;;1.92;1.42;;;22.10;99.90;;;;;;3565218;40;20470;-64
2021/07/19 00:39:56;;;;;;;3.28;1.77;;;22.20;99.90;;;;;;3567500;40;20394;-64
2021/07/19 00:42:23;;;;;;;2.80;1.60;;;22.20;99.90;;;;;;3567259;40;20381;-64
2021/07/19 00:44:50;;;;;;;2.78;1.92;;;22.20;99.90;;;;;;3559464;40;20410;-64
2021/07/19 00:47:17;;;;;;;3.40;1.75;;;22.20;99.90;;;;;;3567308;40;20393;-64
2021/07/19 00:49:44;;;;;;;2.60;1.33;;;22.20;99.90;;;;;;3564343;40;20405;-64
2021/07/19 00:52:10;;;;;;;2.22;1.52;;;22.10;99.90;;;;;;3565566;40;20397;-64
2021/07/19 00:54:38;;;;;;;3.83;1.77;;;22.10;99.90;;;;;;3566574;40;20471;-64
2021/07/19 00:57:06;;;;;;;2.50;1.42;;;22.10;99.90;;;;;;3567053;40;20411;-64
2021/07/19 00:59:34;;;;;;;1.63;1.10;;;22.10;99.90;;;;;;3567441;40;20377;-64
2021/07/19 01:02:03;;;;;;;3.37;1.57;;;22.20;99.90;;;;;;3567348;40;21114;-63
2021/07/19 01:04:31;;;;;;;1.85;1.50;;;22.20;99.90;;;;;;3598062;23;20509;-71
2021/07/19 01:07:03;;;;;;;4.93;1.67;;;22.20;99.90;;;;;;3569068;40;20464;-71
2021/07/19 01:09:29;;;;;;;3.80;1.88;;;22.10;99.90;;;;;;3568775;40;20385;-70
2021/07/19 01:11:55;;;;;;;2.73;1.93;;;;;;;;;;3572135;40;20403;-71
2021/07/19 01:14:21;;;;;;;3.90;2.13;;;22.00;99.90;;;;;;3573011;40;20380;-71
2021/07/19 01:16:47;;;;;;;5.67;1.77;;;;;;;;;;3572197;40;20669;-71
2021/07/19 01:19:15;;;;;;;5.27;2.57;;;21.70;99.90;;;;;;3567322;40;20518;-71
2021/07/19 01:22:16;;;;;;;4.35;2.10;;;;;;;;;;3572894;40;20768;-71
2021/07/19 01:24:51;;;;;;;5.00;1.83;;;21.40;99.90;;;;;;3527826;40;20421;-71
2021/07/19 01:27:48;;;;;;;3.50;2.22;;;21.30;99.90;;;;;;3518606;40;20389;-71
2021/07/19 01:30:16;;;;;;;3.00;2.08;;;21.30;99.90;;;;;;3555946;40;20413;-70
2021/07/19 01:32:45;;;;;;;2.20;1.50;;;21.30;99.90;;;;;;3564775;40;20792;-71
2021/07/19 01:35:13;;;;;;;2.47;1.60;;;21.30;99.90;;;;;;3559466;40;20670;-70
2021/07/19 01:37:42;;;;;;;2.30;1.60;;;21.40;99.90;;;;;;3560401;40;20664;-70
2021/07/19 01:40:10;;;;;;;3.10;1.50;;;21.40;99.90;;;;;;3572099;40;20402;-70
2021/07/19 01:42:37;;;;;;;3.95;1.70;;;21.40;99.90;;;;;;3559718;40;20401;-71
2021/07/19 01:45:04;;;;;;;1.83;1.45;;;21.50;99.90;;;;;;3570740;40;20766;-70
2021/07/19 01:47:32;;;;;;;2.30;1.60;;;21.40;99.90;;;;;;3574574;40;20633;-70
2021/07/19 01:49:59;;;;;;;2.53;1.20;;;21.50;99.90;;;;;;3569410;40;20384;-72
2021/07/19 01:52:26;;;;;;;2.17;1.10;;;21.50;99.90;;;;;;3570050;40;20598;-71
2021/07/19 01:54:52;;;;;;;1.50;1.40;;;21.50;99.90;;;;;;3567705;40;20385;-71
2021/07/19 01:57:19;;;;;;;3.90;1.35;;;21.50;99.90;;;;;;3561437;40;20526;-70
2021/07/19 01:59:46;;;;;;;3.28;1.33;;;21.40;99.90;;;;;;3559084;40;20382;-71
2021/07/19 02:02:15;;;;;;;3.58;1.42;;;21.30;99.90;;;;;;3558555;40;20893;-72
2021/07/19 02:04:42;;;;;;;5.68;1.45;;;21.30;99.90;;;;;;3567682;40;20470;-71
2021/07/19 02:07:08;;;;;;;1.90;1.60;;;21.20;99.90;;;;;;3565043;40;20481;-70
2021/07/19 02:09:35;;;;;;;2.42;1.33;;;21.20;99.90;;;;;;3558013;40;20397;-71
2021/07/19 02:12:03;;;;;;;3.25;1.50;;;21.20;99.90;;;;;;3566734;40;20417;-71
2021/07/19 02:14:30;;;;;;;3.97;1.70;;;21.20;99.90;;;;;;3566337;40;20701;-71
2021/07/19 02:16:57;;;;;;;3.40;1.30;;;21.20;99.90;;;;;;3564240;40;20479;-70
2021/07/19 02:19:24;;;;;;;4.72;1.45;;;;;;;;;;3566899;40;20434;-70
2021/07/19 02:21:51;;;;;;;2.25;1.48;;;21.10;99.90;;;;;;3565344;40;20398;-71
2021/07/19 02:24:18;;;;;;;3.63;1.83;;;;;;;;;;3553343;40;20414;-70
2021/07/19 02:26:45;;;;;;;4.35;1.48;;;20.90;99.90;;;;;;3566857;40;20377;-70
2021/07/19 02:29:15;;;;;;;2.42;1.60;;;20.80;99.90;;;;;;3567882;40;20421;-70
2021/07/19 02:31:42;;;;;;;1.65;1.17;;;;;;;;;;3557910;40;20791;-70
2021/07/19 02:34:08;;;;;;;1.60;1.48;;;;;;;;;;3564330;40;20382;-71
2021/07/19 02:36:35;;;;;;;2.40;1.30;;;;;;;;;;3555670;40;20381;-71
2021/07/19 02:39:04;;;;;;;2.20;1.45;;;;;;;;;;3566302;40;20401;-71
2021/07/19 02:41:30;;;;;;;2.45;1.35;;;;;;;;;;3565024;40;20402;-71
2021/07/19 02:43:59;;;;;;;3.05;1.40;;;;;;;;;;3567072;40;20646;-71
2021/07/19 02:46:26;;;;;;;2.13;1.20;;;;;;;;;;3567100;40;20490;-71
2021/07/19 02:48:53;;;;;;;2.20;1.85;;;;;;;;;;3567131;40;20380;-71
2021/07/19 02:51:20;;;;;;;2.28;1.50;;;;;;;;;;3564884;40;20405;-69
2021/07/19 02:53:49;;;;;;;4.30;1.42;;;;;;;;;;3566098;40;20521;-69
2021/07/19 02:56:17;;;;;;;1.55;1.42;;;;;;;;;;3555882;40;20402;-70
2021/07/19 02:58:43;;;;;;;4.15;1.45;;;;;;;;;;3566732;40;20448;-64
2021/07/19 03:01:10;;;;;;;3.45;1.50;;;;;;;;;;3549285;40;20509;-64
2021/07/19 03:03:38;;;;;;;2.17;1.30;;;;;;;;;;3565433;40;20424;-64
2021/07/19 03:06:05;;;;;;;1.70;1.20;;;;;;;;;;3564232;40;20818;-64
2021/07/19 03:08:33;;;;;;;2.60;1.40;;;;;;;;;;3556938;40;20808;-64
2021/07/19 03:11:00;;;;;;;1.77;1.30;;;;;;;;;;3565561;40;20833;-64
2021/07/19 03:13:29;;;;;;;1.93;1.50;;;;;;;;;;3569121;40;20399;-65
2021/07/19 03:15:55;;;;;;;2.40;1.33;;;;;;;;;;3566592;40;20382;-64
2021/07/19 03:18:22;;;;;;;2.70;1.58;;;;;;;;;;3556352;40;20790;-65
2021/07/19 03:20:50;;;;;;;2.10;1.38;;;;;;;;;;3568206;40;20390;-64
2021/07/19 03:23:17;;;;;;;2.67;1.17;;;;;;;;;;3571655;40;20376;-65
2021/07/19 03:25:44;;;;;;;1.65;1.33;;;;;;;;;;3568508;40;20494;-64
2021/07/19 03:28:11;;;;;;;4.05;1.52;;;;;;;;;;3558002;40;20398;-65
2021/07/19 03:30:40;;;;;;;1.43;1.30;;;;;;;;;;3567025;40;20417;-65
2021/07/19 03:33:07;;;;;;;2.22;1.58;;;20.70;99.90;;;;;;3568527;40;20445;-64
2021/07/19 03:35:33;;;;;;;3.45;1.38;;;20.60;99.90;;;;;;3562873;40;20382;-65
2021/07/19 03:38:00;;;;;;;2.90;1.73;;;;;;;;;;3570780;40;20385;-64
2021/07/19 03:40:27;;;;;;;3.47;1.60;;;;;;;;;;3566113;40;20384;-65
2021/07/19 03:42:55;;;;;;;1.50;1.10;;;;;;;;;;3566675;40;20389;-65
2021/07/19 03:45:21;;;;;;;3.92;1.60;;;;;;;;;;3566304;40;20386;-64
2021/07/19 03:47:49;;;;;;;1.90;1.13;;;;;;;;;;3564486;40;20425;-64
2021/07/19 03:50:15;;;;;;;1.80;1.20;;;;;;;;;;3566498;40;20405;-65
2021/07/19 03:52:42;;;;;;;4.20;1.50;;;;;;;;;;3565298;40;20397;-64
2021/07/19 03:55:09;;;;;;;3.15;1.58;;;;;;;;;;3565552;40;20396;-64
2021/07/19 03:57:38;;;;;;;2.95;1.42;;;;;;;;;;3565276;40;20398;-65
2021/07/19 04:00:05;;;;;;;3.17;1.90;;;;;;;;;;3563031;40;20392;-64
2021/07/19 04:02:33;;;;;;;3.40;1.67;;;;;;;;;;3565701;40;20382;-65
2021/07/19 04:05:06;;;;;;;3.03;1.60;;;;;;;;;;3563557;40;20699;-64
2021/07/19 04:07:32;;;;;;;3.60;2.00;;;;;;;;;;3566384;40;20366;-64
2021/07/19 04:09:59;;;;;;;3.80;1.80;;;;;;;;;;3564608;40;20394;-64
2021/07/19 04:12:25;;;;;;;2.85;1.67;;;;;;;;;;3566202;40;20381;-65
2021/07/19 04:14:52;;;;;;;2.75;1.58;;;;;;;;;;3566060;40;20390;-64
2021/07/19 04:17:18;;;;;;;3.80;1.20;;;;;;;;;;3563868;40;20378;-64
2021/07/19 04:19:45;;;;;;;2.65;1.58;;;;;;;;;;3565851;40;20394;-65
2021/07/19 04:22:13;;;;;;;3.70;1.60;;;;;;;;;;3566033;40;20382;-64
2021/07/19 04:24:39;;;;;;;4.32;1.50;;;;;;;;;;3566018;40;20681;-64
2021/07/19 04:27:06;;;;;;;1.90;1.80;;;;;;;;;;3562901;40;20392;-64
2021/07/19 04:29:32;;;;;;;2.38;1.45;;;;;;;;;;3564164;40;20382;-64
2021/07/19 04:31:59;;;;;;;3.90;1.60;;;;;;;;;;3564270;40;20391;-64
2021/07/19 04:34:26;;;;;;;1.90;1.70;;;;;;;;;;3561213;40;20448;-64
2021/07/19 04:36:52;;;;;;;2.42;1.63;;;;;;;;;;3565585;40;20389;-65
2021/07/19 04:39:20;;;;;;;1.70;1.50;;;;;;;;;;3565984;40;20377;-65
2021/07/19 04:41:46;;;;;;;1.38;1.20;;;;;;;;;;3556398;40;20413;-64
2021/07/19 04:44:12;;;;;;;3.27;1.57;;;;;;;;;;3565952;40;20715;-64
2021/07/19 04:46:38;;;;;;;11.10;5.63;;;;;;;;;;3553637;40;20748;-64
2021/07/19 04:49:07;;;;;;;10.25;6.00;;;;;;;;;;3565856;40;20388;-64
2021/07/19 04:51:33;;;;;;;6.30;4.22;;;;;;;;;;3565522;40;20390;-64
2021/07/19 04:54:00;;;;;;;2.70;2.17;;;;;;;;;;3556685;40;20457;-64
2021/07/19 04:56:29;;;;;;;2.97;2.13;;;;;;;;;;3565572;40;20413;-64
2021/07/19 04:58:56;;;;;;;4.60;1.80;;;;;;;;;;3564839;40;20397;-64
2021/07/19 05:01:23;;;;;;;2.27;1.67;;;;;;;;;;3565535;40;20472;-64
2021/07/19 05:03:51;;;;;;;2.57;1.93;;;;;;;;;;3565540;40;20497;-64
2021/07/19 05:06:18;;;;;;;4.45;2.92;;;;;;;;;;3564883;40;20385;-64
2021/07/19 05:08:48;;;;;;;2.65;1.98;;;;;;;;;;3562886;40;20378;-65
2021/07/19 05:11:14;;;;;;;3.53;2.13;;;;;;;;;;3564410;40;20382;-65
2021/07/19 05:13:42;;;;;;;1.83;1.70;;;;;;;;;;3561673;40;20391;-64
2021/07/19 05:16:08;;;;;;;2.50;1.77;;;;;;;;;;3564446;40;20376;-64
2021/07/19 05:18:35;;;;;;;5.18;3.13;;;;;;;;;;3564323;40;20387;-64
2021/07/19 05:21:03;;;;;;;2.92;2.08;;;;;;;;;;3565500;40;20421;-65
2021/07/19 05:23:29;;;;;;;1.83;1.73;;;;;;;;;;3567042;40;20427;-64
2021/07/19 05:25:56;;;;;;;3.17;2.28;;;;;;;;;;3567296;40;20385;-65
2021/07/19 05:28:22;;;;;;;3.93;2.30;;;;;;;;;;3566521;40;20397;-65
2021/07/19 05:30:51;;;;;;;2.15;1.50;;;;;;;;;;3562302;40;20441;-64
2021/07/19 05:33:18;;;;;;;2.75;1.30;;;;;;;;;;3565715;40;20409;-64
2021/07/19 05:35:44;;;;;;;3.03;1.50;;;;;;;;;;3566009;40;20393;-64
2021/07/19 05:38:10;;;;;;;1.67;1.15;;;20.50;99.90;;;;;;3565333;40;20419;-64
2021/07/19 05:40:37;;;;;;;1.80;1.50;;;21.10;99.90;;;;;;3565487;40;20416;-65
2021/07/19 05:43:03;;;;;;;2.63;1.80;;;21.20;99.90;;;;;;3565017;40;20638;-66
2021/07/19 05:45:30;;;;;;;2.17;1.70;;;21.20;99.90;;;;;;3562571;40;20750;-65
2021/07/19 05:47:58;;;;;;;2.92;1.50;;;21.30;99.90;;;;;;3560686;40;20549;-64
2021/07/19 05:50:24;;;;;;;2.55;1.67;;;21.30;99.90;;;;;;3564444;40;20382;-64
2021/07/19 05:52:51;;;;;;;2.90;1.70;;;21.40;99.90;;;;;;3565811;40;20389;-64
2021/07/19 05:55:17;;;;;;;3.53;1.98;;;21.50;99.90;;;;;;3557597;40;20401;-65
2021/07/19 05:57:44;;;;;;;2.40;1.52;;;21.60;99.90;;;;;;3569819;40;20417;-64
2021/07/19 06:00:16;;;;;;;2.53;1.60;;;21.70;99.90;;;;;;3557424;40;20413;-64
2021/07/19 06:02:42;;;;;;;3.78;1.70;;;21.90;99.90;;;;;;3566816;40;20374;-65
2021/07/19 06:05:11;;;;;;;3.78;1.40;;;21.90;99.90;;;;;;3557273;40;20402;-64
2021/07/19 06:07:37;;;;;;;2.60;1.50;;;22.00;99.90;;;;;;3556076;40;20427;-64
2021/07/19 06:10:05;;;;;;;2.90;1.80;;;22.10;99.90;;;;;;3557483;40;20775;-64
2021/07/19 06:12:31;;;;;;;1.87;1.37;;;22.20;99.90;;;;;;3555841;40;20421;-64
2021/07/19 06:14:57;;;;;;;1.83;1.33;;;22.30;99.90;;;;;;3555420;40;20398;-64
2021/07/19 06:17:23;;;;;;;4.35;1.70;;;22.40;99.90;;;;;;3556593;40;20396;-64
2021/07/19 06:19:49;;;;;;;2.58;1.48;;;22.50;99.90;;;;;;3556443;40;20757;-65
2021/07/19 06:22:16;;;;;;;2.13;1.42;;;22.60;99.90;;;;;;3556405;40;20380;-65
2021/07/19 06:24:43;;;;;;;3.13;1.73;;;22.70;99.90;;;;;;3556808;40;20399;-64
2021/07/19 06:27:09;;;;;;;3.33;1.97;;;22.80;99.90;;;;;;3556804;40;20392;-65
2021/07/19 06:29:35;;;;;;;2.10;1.40;;;22.90;99.90;;;;;;3556899;40;20414;-64
2021/07/19 06:32:02;;;;;;;2.58;1.38;;;23.00;99.90;;;;;;3558210;40;20385;-64
2021/07/19 06:34:28;;;;;;;3.67;1.60;;;23.10;99.90;;;;;;3555859;40;20761;-65
2021/07/19 06:36:54;;;;;;;4.83;1.63;;;23.20;99.90;;;;;;3556540;40;20387;-65
2021/07/19 06:39:21;;;;;;;4.47;2.22;;;23.30;99.90;;;;;;3556655;40;20383;-64
2021/07/19 06:41:47;;;;;;;4.75;1.80;;;23.40;99.90;;;;;;3558229;40;20636;-64
2021/07/19 06:44:13;;;;;;;3.53;1.80;;;23.40;99.90;;;;;;3557706;40;20419;-65
2021/07/19 06:46:39;;;;;;;2.65;1.40;;;23.50;99.90;;;;;;3556543;40;20867;-65
2021/07/19 06:49:05;;;;;;;2.75;1.60;;;23.60;99.90;;;;;;3556857;40;20400;-64
2021/07/19 06:51:31;;;;;;;2.40;1.17;;;23.70;99.90;;;;;;3556305;40;20469;-64
2021/07/19 06:53:57;;;;;;;1.80;1.33;;;23.70;99.90;;;;;;3556537;40;20458;-64
2021/07/19 06:56:25;;;;;;;2.58;1.50;;;23.80;99.90;;;;;;3559200;40;20385;-65
2021/07/19 06:58:51;;;;;;;2.30;1.25;;;23.90;99.90;;;;;;3554524;40;20447;-64
2021/07/19 07:01:17;;;;;;;2.78;1.35;;;24.00;99.90;;;;;;3555175;40;20395;-65
2021/07/19 07:03:43;;;;;;;2.25;1.30;;;24.00;99.90;;;;;;3557770;40;20448;-64
2021/07/19 07:06:09;;;;;;;1.42;1.15;;;24.10;99.90;;;;;;3563128;40;20390;-64
2021/07/19 07:08:35;;;;;;;2.17;1.33;;;24.20;99.90;;;;;;3557172;40;20402;-64
2021/07/19 07:11:01;;;;;;;4.78;2.13;;;24.30;99.90;;;;;;3557381;40;20388;-64
2021/07/19 07:13:28;;;;;;;4.30;1.73;;;24.40;99.90;;;;;;3566459;40;20409;-65
2021/07/19 07:15:54;;;;;;;6.50;2.85;;;24.50;99.90;;;;;;3566499;40;20769;-65
2021/07/19 07:18:20;;;;;;;3.97;2.10;;;24.70;99.90;;;;;;3563434;40;20401;-64
2021/07/19 07:20:46;;;;;;;2.83;1.40;;;24.80;99.90;;;;;;3565557;40;20390;-66
2021/07/19 07:23:12;;;;;;;3.10;1.20;;;24.90;99.90;;;;;;3556946;40;20416;-65
2021/07/19 07:25:38;;;;;;;2.00;1.60;;;25.00;99.90;;;;;;3548997;40;20409;-65
2021/07/19 07:28:04;;;;;;;3.38;1.45;;;25.10;99.90;;;;;;3566577;40;20405;-65
2021/07/19 07:30:32;;;;;;;3.15;1.33;;;;;;;;;;3566080;40;20391;-65
2021/07/19 07:33:00;;;;;;;3.03;1.30;;;;;;;;;;3557084;40;20441;-65
2021/07/19 07:35:26;;;;;;;2.45;1.15;;;;;;;;;;3557469;40;20393;-65
2021/07/19 07:37:52;;;;;;;2.72;1.20;;;;;;;;;;3566258;40;20474;-65
2021/07/19 07:40:18;;;;;;;3.17;1.10;;;25.30;99.90;;;;;;3564221;40;20779;-65
2021/07/19 07:42:44;;;;;;;2.42;1.10;;;26.30;99.90;;;;;;3565378;40;20795;-65
2021/07/19 07:45:11;;;;;;;2.60;1.20;;;;;;;;;;3566339;40;20447;-65
2021/07/19 07:47:41;;;;;;;1.90;1.20;;;;;;;;;;3565883;40;20778;-65
2021/07/19 07:50:08;;;;;;;1.50;1.15;;;;;;;;;;3566126;40;20377;-65
2021/07/19 07:52:35;;;;;;;2.20;1.35;;;;;;;;;;3566167;40;20381;-65
2021/07/19 07:55:01;;;;;;;2.15;0.90;;;;;;;;;;3565983;40;20393;-65
2021/07/19 07:57:27;;;;;;;3.22;1.20;;;;;;;;;;3563476;40;20455;-65
2021/07/19 07:59:53;;;;;;;1.63;1.10;;;26.40;99.90;;;;;;3567147;40;20369;-65
2021/07/19 08:02:19;;;;;;;2.20;1.25;;;;;;;;;;3563777;40;20616;-65
2021/07/19 08:04:47;;;;;;;2.05;1.13;;;;;;;;;;3560390;40;20828;-65
2021/07/19 08:07:13;;;;;;;1.50;1.20;;;;;;;;;;3556991;40;20402;-65
2021/07/19 08:09:39;;;;;;;2.03;1.30;;;;;;;;;;3557373;40;20383;-65
2021/07/19 08:12:07;;;;;;;3.05;1.10;;;;;;;;;;3555961;40;20612;-64
2021/07/19 08:14:33;;;;;;;3.40;1.10;;;;;;;;;;3552945;40;20382;-65
2021/07/19 08:16:59;;;;;;;3.08;1.02;;;;;;;;;;3556066;40;20375;-65
2021/07/19 08:19:32;;;;;;;2.22;1.30;;;;;;;;;;3558954;40;20454;-65
2021/07/19 08:22:00;;;;;;;2.30;1.00;;;;;;;;;;3556218;40;20837;-65
2021/07/19 08:24:25;;;;;;;3.47;1.05;;;26.90;99.90;;;;;;3556148;40;20434;-65
2021/07/19 08:26:52;;;;;;;2.83;1.70;;;;;;;;;;3556182;40;20387;-65
2021/07/19 08:29:18;;;;;;;1.37;1.17;;;;;;;;;;3553825;40;20395;-65
2021/07/19 08:31:47;;;;;;;3.08;1.48;;;28.10;98.70;;;;;;3551852;40;20378;-65
2021/07/19 08:34:13;;;;;;;2.22;1.23;;;;;;;;;;3555392;40;20427;-65
2021/07/19 08:36:39;;;;;;;2.75;1.30;;;;;;;;;;3558182;40;20379;-65
2021/07/19 08:39:07;;;;;;;2.80;1.17;;;;;;;;;;3555921;40;20403;-65
2021/07/19 08:41:33;;;;;;;1.80;1.33;;;;;;;;;;3555999;40;20414;-65
2021/07/19 08:44:05;;;;;;;2.50;1.10;;;;;;;;;;3546303;40;20404;-65
2021/07/19 08:46:31;;;;;;;2.88;1.45;;;;;;;;;;3555937;40;20383;-65
2021/07/19 08:48:57;;;;;;;2.47;1.27;;;;;;;;;;3556965;40;20435;-64
2021/07/19 08:51:23;;;;;;;3.10;1.30;;;;;;;;;;3557404;40;20387;-65
2021/07/19 08:53:52;;;;;;;2.80;1.20;;;;;;;;;;3557661;40;20785;-65
2021/07/19 08:56:19;;;;;;;2.83;1.48;;;;;;;;;;3557317;40;20422;-65
2021/07/19 08:58:46;;;;;;;2.25;1.20;;;;;;;;;;3557715;40;20629;-65
2021/07/19 09:01:12;;;;;;;3.75;1.17;;;;;;;;;;3557436;40;20423;-65
2021/07/19 09:03:39;;;;;;;2.30;1.10;;;;;;;;;;3558330;40;20637;-65
2021/07/19 09:06:05;;;;;;;3.08;0.98;;;;;;;;;;3567217;40;20397;-65
2021/07/19 09:08:31;;;;;;;68.50;14.20;;;;;;;;;;3565620;40;20468;-65
2021/07/19 09:11:06;;;;;;;416.58;110.95;;;;;;;;;;3567037;40;20373;-65
2021/07/19 09:13:34;;;;;;;112.22;27.13;;;;;;;;;;3567143;40;20452;-66
2021/07/19 09:16:00;;;;;;;16.25;4.78;;;;;;;;;;3561460;40;20396;-65
2021/07/19 09:18:28;;;;;;;1.42;1.05;;;;;;;;;;3564917;40;20503;-65
2021/07/19 09:20:54;;;;;;;1.50;0.93;;;;;;;;;;3567411;40;20395;-65
2021/07/19 09:23:26;;;;;;;3.00;1.27;;;;;;;;;;3567033;40;20386;-66
2021/07/19 09:25:53;;;;;;;3.25;1.40;;;;;;;;;;3558262;40;20401;-66
2021/07/19 09:28:19;;;;;;;3.22;1.30;;;;;;;;;;3563526;40;20386;-65
2021/07/19 09:30:47;;;;;;;4.97;1.58;;;;;;;;;;3565095;40;20639;-65
2021/07/19 09:33:14;;;;;;;1.75;1.38;;;;;;;;;;3567150;40;20401;-66
2021/07/19 09:35:42;;;;;;;1.73;1.00;;;;;;;;;;3566755;40;20786;-66
2021/07/19 09:38:09;;;;;;;2.15;1.33;;;;;;;;;;3567300;40;20406;-65
2021/07/19 09:40:36;;;;;;;2.58;1.08;;;;;;;;;;3565934;40;20514;-65
2021/07/19 09:43:12;;;;;;;2.75;1.25;;;;;;;;;;3567193;40;20389;-66
2021/07/19 09:45:39;;;;;;;2.33;1.25;;;28.50;98.80;;;;;;3565646;40;20386;-65
2021/07/19 09:48:08;;;;;;;2.80;1.23;;;30.60;90.10;;;;;;3566875;40;20402;-66
2021/07/19 09:50:44;;;;;;;2.22;1.10;;;30.60;87.60;;;;;;3558048;40;20398;-66
2021/07/19 09:53:10;;;;;;;3.10;1.30;;;30.70;88.30;;;;;;3566877;40;20631;-65
2021/07/19 09:55:37;;;;;;;3.58;1.25;;;;;;;;;;3557035;40;20807;-66
2021/07/19 09:58:03;;;;;;;2.28;1.20;;;;;;;;;;3565440;40;20421;-68
2021/07/19 10:00:30;;;;;;;1.80;1.02;;;;;;;;;;3565128;40;20758;-66
2021/07/19 10:02:56;;;;;;;2.25;1.10;;;;;;;;;;3567047;40;20443;-65
2021/07/19 10:05:25;;;;;;;1.27;1.00;;;;;;;;;;3566750;40;20794;-66
2021/07/19 10:07:51;;;;;;;2.10;1.40;;;;;;;;;;3565380;40;20487;-65
2021/07/19 10:10:18;;;;;;;3.42;1.20;;;;;;;;;;3564951;40;20773;-66
2021/07/19 10:12:44;;;;;;;2.40;1.27;;;;;;;;;;3565307;40;20679;-66
2021/07/19 10:15:12;;;;;;;2.38;1.00;;;;;;;;;;3565464;40;20765;-66
2021/07/19 10:17:38;;;;;;;1.55;1.20;;;;;;;;;;3566887;40;20463;-65
2021/07/19 10:20:05;;;;;;;2.45;1.40;;;;;;;;;;3565494;40;20395;-66
2021/07/19 10:22:33;;;;;;;1.75;1.10;;;;;;;;;;3566856;40;20377;-65
2021/07/19 10:24:59;;;;;;;1.80;1.10;;;;;;;;;;3566761;40;20397;-66
2021/07/19 10:27:27;;;;;;;1.80;1.20;;;;;;;;;;3566990;40;20373;-65
2021/07/19 10:29:55;;;;;;;1.70;1.10;;;;;;;;;;3567114;40;20786;-66
2021/07/19 10:32:22;;;;;;;2.47;1.20;;;;;;;;;;3564625;40;20374;-66
2021/07/19 10:34:49;;;;;;;1.58;0.98;;;;;;;;;;3566791;40;20417;-66
2021/07/19 10:37:18;;;;;;;1.92;1.10;;;;;;;;;;3563743;40;20379;-66
2021/07/19 10:39:50;;;;;;;2.20;1.00;;;;;;;;;;3566799;40;20425;-66
2021/07/19 10:42:17;;;;;;;2.43;1.20;;;;;;;;;;3565695;40;20370;-66
2021/07/19 10:44:43;;;;;;;2.13;1.07;;;;;;;;;;3565948;40;20386;-65
2021/07/19 10:47:13;;;;;;;4.05;1.10;;;;;;;;;;3565229;40;20384;-65
2021/07/19 10:49:43;;;;;;;4.90;1.23;;;;;;;;;;3557118;40;20646;-66
2021/07/19 10:52:10;;;;;;;3.45;1.35;;;;;;;;;;3565515;40;20409;-65
2021/07/19 10:54:47;;;;;;;2.50;1.20;;;;;;;;;;3564170;40;20488;-66
2021/07/19 10:57:17;;;;;;;2.08;1.17;;;;;;;;;;3564334;40;20429;-65
2021/07/19 10:59:43;;;;;;;2.83;1.02;;;;;;;;;;3563862;40;20389;-66
2021/07/19 11:02:10;;;;;;;2.38;1.10;;;;;;;;;;3565426;40;20382;-65
2021/07/19 11:04:45;;;;;;;4.40;1.00;;;;;;;;;;3564676;40;20680;-66
2021/07/19 11:07:12;;;;;;;2.20;1.10;;;;;;;;;;3557087;40;20456;-65
2021/07/19 11:09:39;;;;;;;2.58;1.10;;;;;;;;;;3555350;40;20407;-65
2021/07/19 11:12:16;;;;;;;3.47;1.30;;;;;;;;;;3563563;40;20612;-65
2021/07/19 11:14:46;;;;;;;1.88;1.17;;;;;;;;;;3562939;40;20399;-66
2021/07/19 11:17:12;;;;;;;3.08;1.20;;;;;;;;;;3556598;40;20496;-66
2021/07/19 11:19:42;;;;;;;2.33;1.35;;;;;;;;;;3564347;40;20400;-66
2021/07/19 11:22:09;;;;;;;2.50;1.20;;;;;;;;;;3562191;40;20748;-66
2021/07/19 11:24:39;;;;;;;3.70;1.30;;;;;;;;;;3561572;40;20777;-65
2021/07/19 11:27:05;;;;;;;1.75;1.00;;;;;;;;;;3564307;40;20413;-66
2021/07/19 11:29:33;;;;;;;2.72;1.10;;;;;;;;;;3563210;40;20388;-65
2021/07/19 11:32:18;;;;;;;2.00;1.00;;;30.80;88.40;;;;;;3563750;40;20385;-65
2021/07/19 11:34:45;;;;;;;1.52;1.10;;;32.80;71.90;;;;;;3564248;40;20378;-66
2021/07/19 11:37:11;;;;;;;1.25;0.98;;;32.50;72.00;;;;;;3566135;40;20763;-65
2021/07/19 11:39:58;;;;;;;1.77;0.80;;;;;;;;;;3565831;40;20459;-66
2021/07/19 11:42:28;;;;;;;3.92;1.00;;;;;;;;;;3550296;40;20480;-65
2021/07/19 11:45:02;;;;;;;2.13;0.80;;;;;;;;;;3556924;40;20802;-66
2021/07/19 11:47:29;;;;;;;3.83;1.13;;;;;;;;;;3563088;40;20382;-66
2021/07/19 11:50:00;;;;;;;1.55;0.80;;;;;;;;;;3565606;40;20683;-66
2021/07/19 11:52:26;;;;;;;1.98;0.98;;;;;;;;;;3565847;40;20389;-65
2021/07/19 11:54:52;;;;;;;3.05;1.00;;;;;;;;;;3563088;40;20763;-65
2021/07/19 11:57:18;;;;;;;1.65;0.95;;;;;;;;;;3555688;40;20407;-67
2021/07/19 11:59:46;;;;;;;2.60;0.85;;;;;;;;;;3564591;40;20413;-65
2021/07/19 12:02:13;;;;;;;1.50;0.93;;;;;;;;;;3565575;40;20382;-65
2021/07/19 12:04:40;;;;;;;2.28;0.90;;;;;;;;;;3558901;40;20724;-65
2021/07/19 12:07:08;;;;;;;4.20;0.90;;;;;;;;;;3556099;40;20394;-65
2021/07/19 12:09:34;;;;;;;2.22;0.80;;;;;;;;;;3556325;40;20379;-65
2021/07/19 12:12:02;;;;;;;2.63;0.90;;;;;;;;;;3556108;40;20772;-66
2021/07/19 12:14:29;;;;;;;1.77;1.02;;;;;;;;;;3556204;40;20407;-65
2021/07/19 12:16:55;;;;;;;2.08;0.75;;;;;;;;;;3556132;40;20390;-65
2021/07/19 12:19:23;;;;;;;2.97;0.90;;;;;;;;;;3554342;40;20643;-65
2021/07/19 12:21:53;;;;;;;2.20;0.80;;;;;;;;;;3555622;40;20885;-65
2021/07/19 12:24:20;;;;;;;1.85;0.90;;;;;;;;;;3552597;40;20459;-65
2021/07/19 12:26:47;;;;;;;2.92;0.98;;;;;;;;;;3555838;40;20386;-65
2021/07/19 12:29:14;;;;;;;3.43;0.90;;;;;;;;;;3553244;40;20380;-66
2021/07/19 12:31:48;;;;;;;1.70;0.70;;;;;;;;;;3555795;40;20474;-65
2021/07/19 12:34:16;;;;;;;2.42;0.75;;;;;;;;;;3555622;40;20396;-65
2021/07/19 12:36:49;;;;;;;2.50;0.93;;;;;;;;;;3555244;40;20470;-65
2021/07/19 12:39:16;;;;;;;1.45;0.70;;;;;;;;;;3552084;40;20378;-68
2021/07/19 12:41:43;;;;;;;2.13;0.88;;;;;;;;;;3546975;40;20395;-65
2021/07/19 12:44:10;;;;;;;3.30;0.90;;;;;;;;;;3546823;40;20427;-65
2021/07/19 12:46:36;;;;;;;1.75;0.70;;;;;;;;;;3556056;40;20438;-66
2021/07/19 12:49:03;;;;;;;2.35;0.73;;;;;;;;;;3546115;40;20456;-66
2021/07/19 12:51:29;;;;;;;2.13;0.80;;;;;;;;;;3555832;40;20391;-65
2021/07/19 12:54:01;;;;;;;3.92;0.95;;;;;;;;;;3555962;40;20418;-65
2021/07/19 12:56:27;;;;;;;1.08;0.80;;;;;;;;;;3547088;40;20425;-65
2021/07/19 12:58:54;;;;;;;2.63;0.80;;;;;;;;;;3555959;40;20724;-66
2021/07/19 13:01:20;;;;;;;3.08;0.93;;;;;;;;;;3556303;40;20391;-65
2021/07/19 13:03:46;;;;;;;1.50;0.70;;;;;;;;;;3555957;40;20413;-65
2021/07/19 13:06:13;;;;;;;2.63;0.70;;;;;;;;;;3568621;40;20458;-65
2021/07/19 13:08:42;;;;;;;2.13;0.80;;;;;;;;;;3563868;40;20409;-65
2021/07/19 13:11:10;;;;;;;2.53;0.90;;;;;;;;;;3569884;40;20754;-65
2021/07/19 13:13:36;;;;;;;1.47;0.83;;;32.60;72.40;;;;;;3564628;40;20437;-65
2021/07/19 13:16:03;;;;;;;2.00;0.80;;;34.00;63.00;;;;;;3565106;40;20766;-65
2021/07/19 13:18:29;;;;;;;2.10;0.80;;;33.80;67.40;;;;;;3565175;40;20397;-65
2021/07/19 13:21:01;;;;;;;0.95;0.63;;;34.00;64.50;;;;;;3565745;40;20394;-65
2021/07/19 13:23:31;;;;;;;1.88;0.70;;;34.10;64.80;;;;;;3561242;40;20387;-65
2021/07/19 13:26:04;;;;;;;1.05;0.70;;;;;;;;;;3555808;40;20771;-65
2021/07/19 13:28:32;;;;;;;0.80;0.70;;;;;;;;;;3562273;40;20369;-65
2021/07/19 13:31:01;;;;;;;2.30;0.70;;;;;;;;;;3564939;40;20397;-65
2021/07/19 13:33:27;;;;;;;1.30;0.80;;;34.50;65.80;;;;;;3565214;40;20491;-66
2021/07/19 13:35:55;;;;;;;3.07;0.80;;;34.70;64.80;;;;;;3566790;40;20755;-65
2021/07/19 13:38:21;;;;;;;2.10;0.73;;;34.80;63.20;;;;;;3567025;40;20378;-65
2021/07/19 13:40:52;;;;;;;2.78;0.88;;;34.70;65.00;;;;;;3564004;40;20414;-65
2021/07/19 13:43:22;;;;;;;2.20;0.90;;;;;;;;;;3570419;40;20397;-65
2021/07/19 13:45:50;;;;;;;2.15;0.90;;;;;;;;;;3567049;40;20404;-66
2021/07/19 13:48:16;;;;;;;1.90;1.00;;;;;;;;;;3566786;40;20397;-63
2021/07/19 13:50:43;;;;;;;2.17;1.02;;;;;;;;;;3566804;40;20663;-63
2021/07/19 13:53:09;;;;;;;1.45;0.93;;;;;;;;;;3566394;40;20394;-63
2021/07/19 13:55:35;;;;;;;1.55;0.88;;;;;;;;;;3565209;40;20389;-63
2021/07/19 13:58:02;;;;;;;1.77;0.95;;;;;;;;;;3566932;40;20380;-63